Weather History for KTNU - January, 2013

Change the Weather History Date:

Friday, January 4, 2013

  Actual Average Record
Temperature  
Mean Temperature 20 °F -  
Max Temperature 32 °F 26 °F 51 °F (1997)
Min Temperature 8 °F 8 °F -14 °F (1999)
Degree Days  
Heating Degree Days 45    
Moisture  
Dew Point 17 °F    
Average Humidity 78    
Maximum Humidity 93    
Minimum Humidity 64    
Precipitation  
Precipitation 0.00 in - - ()
Sea Level Pressure  
Sea Level Pressure 30.21 in    
Wind  
Wind Speed 10 mph (SW)    
Max Wind Speed 15 mph    
Max Gust Speed 15 mph    
Visibility 10 miles    
Events      
Averages and records for this station are not official NWS values.
T = Trace of Precipitation, MM = Missing Value Source: NWS Daily Summary

Daily Weather History Graph

Daily Weather History Graph

Search for Another Location

Airport or City:

Trip Planner

Search our weather history database for the weather conditions in past years. The results will help you decide how hot, cold, wet, or windy it might be!

Date:

Astronomy

Jan. 04, 2013 Rise Set
Actual Time 7:39 AM CST 4:55 PM CST
Civil Twilight 7:08 AM CST 5:26 PM CST
Nautical Twilight 6:33 AM CST 6:01 PM CST
Astronomical Twilight 5:59 AM CST 6:35 PM CST
Moon No Moon Rise 11:15 AM CST
Length of Visible Light 10h 18m
Length of Day
9h 16m
Waning Gibbous, 55% of the Moon is Illuminated
Jan 4
Waning Gibbous
Jan 4
Last Quarter
Jan 11
New
Jan 18
First Quarter
Jan 26
Full

Hourly Weather History & Observations

Time (CST) Temp. Windchill Dew Point Humidity Pressure Visibility Wind Dir Wind Speed Gust Speed Precip Events Conditions
12:15 AM 8.6 °F -4.7 °F 5.0 °F 85% 30.29 in 10.0 mi SW 9.2 mph - N/A   Clear
12:35 AM 8.6 °F -5.5 °F 5.0 °F 85% 30.27 in 10.0 mi SW 10.4 mph - N/A   Clear
12:55 AM 10.4 °F -3.3 °F 6.8 °F 85% 30.27 in 10.0 mi WSW 10.4 mph - N/A   Clear
1:35 AM 8.6 °F -2.6 °F 5.0 °F 85% 30.27 in 10.0 mi WSW 6.9 mph - N/A   Clear
1:55 AM 10.4 °F -1.5 °F 6.8 °F 85% 30.27 in 10.0 mi SW 8.1 mph - N/A   Clear
2:15 AM 10.4 °F -2.4 °F 6.8 °F 85% 30.27 in 10.0 mi SW 9.2 mph - N/A   Clear
2:35 AM 12.2 °F 0.7 °F 6.8 °F 79% 30.27 in 10.0 mi SW 8.1 mph 15.0 mph N/A   Clear
2:55 AM 12.2 °F -0.2 °F 8.6 °F 85% 30.26 in 10.0 mi SW 9.2 mph - N/A   Clear
3:15 AM 10.4 °F -2.4 °F 6.8 °F 85% 30.26 in 10.0 mi WSW 9.2 mph - N/A   Clear
5:55 AM 12.2 °F -1.0 °F 10.4 °F 92% 30.23 in 10.0 mi SW 10.4 mph - N/A   Clear
6:15 AM 14.0 °F 1.2 °F 10.4 °F 86% 30.23 in 10.0 mi SW 10.4 mph - N/A   Clear
6:35 AM 14.0 °F 1.2 °F 12.2 °F 93% 30.23 in 9.0 mi WSW 10.4 mph - N/A   Clear
6:55 AM 14.0 °F 2.0 °F 12.2 °F 93% 30.23 in 9.0 mi WSW 9.2 mph - N/A   Clear
7:15 AM 14.0 °F 2.0 °F 10.4 °F 86% 30.22 in 9.0 mi SW 9.2 mph - N/A   Clear
7:35 AM 14.0 °F 1.2 °F 10.4 °F 86% 30.22 in 7.0 mi WSW 10.4 mph - N/A   Clear
7:55 AM 14.0 °F 0.5 °F 12.2 °F 93% 30.22 in 8.0 mi SW 11.5 mph - N/A   Clear
8:15 AM 15.8 °F 2.7 °F 12.2 °F 86% 30.21 in 9.0 mi SW 11.5 mph - N/A   Clear
8:35 AM 17.6 °F 4.3 °F 14.0 °F 86% 30.22 in 9.0 mi SW 12.7 mph - N/A   Clear
8:55 AM 17.6 °F 5.0 °F 14.0 °F 86% 30.22 in 9.0 mi SW 11.5 mph - N/A   Clear
9:15 AM 17.6 °F 5.7 °F 14.0 °F 86% 30.23 in 9.0 mi WSW 10.4 mph - N/A   Clear
9:35 AM 19.4 °F 7.9 °F 15.8 °F 86% 30.24 in 9.0 mi WSW 10.4 mph - N/A   Clear
9:55 AM 19.4 °F 7.2 °F 15.8 °F 86% 30.24 in 9.0 mi WSW 11.5 mph - N/A   Clear
10:15 AM 21.2 °F 9.5 °F 15.8 °F 80% 30.25 in 10.0 mi WSW 11.5 mph - N/A   Clear
10:35 AM 21.2 °F 9.5 °F 17.6 °F 86% 30.24 in 10.0 mi SW 11.5 mph - N/A   Clear
10:55 AM 23.0 °F 12.4 °F 17.6 °F 80% 30.24 in 10.0 mi WSW 10.4 mph - N/A   Clear
11:15 AM 24.8 °F 13.4 °F 17.6 °F 74% 30.23 in 10.0 mi SW 12.7 mph - N/A   Clear
11:35 AM 24.8 °F 13.4 °F 19.4 °F 80% 30.21 in 10.0 mi SW 12.7 mph - N/A   Clear
11:55 AM 26.6 °F 15.2 °F 19.4 °F 74% 30.21 in 10.0 mi SW 13.8 mph - N/A   Clear
12:15 PM 28.4 °F 17.0 °F 21.2 °F 74% 30.20 in 10.0 mi SW 15.0 mph - N/A   Clear
12:35 PM 30.2 °F 20.2 °F 21.2 °F 69% 30.19 in 10.0 mi SW 12.7 mph - N/A   Clear
12:55 PM 30.2 °F 19.8 °F 21.2 °F 69% 30.19 in 10.0 mi WSW 13.8 mph - N/A   Clear
1:15 PM 32.0 °F 21.6 °F 21.2 °F 64% 30.18 in 10.0 mi WSW 15.0 mph - N/A   Clear
1:35 PM 32.0 °F 22.5 °F 23.0 °F 69% 30.18 in 10.0 mi SW 12.7 mph - N/A   Clear
1:55 PM 32.0 °F 23.0 °F 23.0 °F 69% 30.18 in 10.0 mi WSW 11.5 mph - N/A   Clear
2:15 PM 32.0 °F 22.5 °F 23.0 °F 69% 30.18 in 10.0 mi SW 12.7 mph - N/A   Clear
2:35 PM 32.0 °F 23.6 °F 23.0 °F 69% 30.17 in 10.0 mi SW 10.4 mph - N/A   Clear
2:55 PM 32.0 °F 23.6 °F 23.0 °F 69% 30.18 in 10.0 mi SW 10.4 mph - N/A   Clear
3:15 PM 32.0 °F 24.2 °F 23.0 °F 69% 30.18 in 10.0 mi WSW 9.2 mph - N/A   Clear
3:35 PM 32.0 °F 24.8 °F 23.0 °F 69% 30.19 in 10.0 mi SW 8.1 mph - N/A   Clear
3:55 PM 32.0 °F 24.2 °F 23.0 °F 69% 30.19 in 10.0 mi SW 9.2 mph - N/A   Clear
4:15 PM 32.0 °F 23.6 °F 23.0 °F 69% 30.19 in 10.0 mi SW 10.4 mph - N/A   Clear
4:35 PM 30.2 °F 21.9 °F 21.2 °F 69% 30.18 in 10.0 mi SW 9.2 mph - N/A   Clear
4:55 PM 30.2 °F 21.9 °F 21.2 °F 69% 30.19 in 10.0 mi SW 9.2 mph - N/A   Clear
5:15 PM 28.4 °F 19.7 °F 21.2 °F 74% 30.19 in 10.0 mi WSW 9.2 mph - N/A   Clear
5:35 PM 28.4 °F 19.7 °F 19.4 °F 69% 30.19 in 10.0 mi SW 9.2 mph - N/A   Clear
5:55 PM 28.4 °F 20.4 °F 21.2 °F 74% 30.19 in 10.0 mi WSW 8.1 mph - N/A   Clear
6:15 PM 30.2 °F 24.3 °F 21.2 °F 69% 30.19 in 10.0 mi SW 5.8 mph - N/A   Clear
6:35 PM 30.2 °F 23.4 °F 19.4 °F 64% 30.20 in 10.0 mi SW 6.9 mph - N/A   Clear
6:55 PM 28.4 °F 22.2 °F 19.4 °F 69% 30.20 in 10.0 mi SW 5.8 mph - N/A   Clear
7:15 PM 28.4 °F 21.2 °F 19.4 °F 69% 30.20 in 10.0 mi SW 6.9 mph - N/A   Clear
7:35 PM 30.2 °F 25.4 °F 19.4 °F 64% 30.19 in 10.0 mi SW 4.6 mph - N/A   Clear
7:55 PM 28.4 °F 23.3 °F 19.4 °F 69% 30.18 in 10.0 mi SSW 4.6 mph - N/A   Clear
8:15 PM 24.8 °F 19.1 °F 19.4 °F 80% 30.18 in 10.0 mi SSW 4.6 mph - N/A   Clear
8:35 PM 26.6 °F 21.2 °F 19.4 °F 74% 30.18 in 10.0 mi SSW 4.6 mph - N/A   Clear
8:55 PM 26.6 °F 18.2 °F 19.4 °F 74% 30.18 in 10.0 mi SSW 8.1 mph - N/A   Clear
9:35 PM 24.8 °F 15.3 °F 19.4 °F 80% 30.18 in 10.0 mi SW 9.2 mph - N/A   Clear
9:55 PM 24.8 °F 14.6 °F 19.4 °F 80% 30.18 in 10.0 mi SW 10.4 mph - N/A   Clear
10:15 PM 24.8 °F 15.3 °F 19.4 °F 80% 30.18 in 10.0 mi SW 9.2 mph - N/A   Clear
10:35 PM 24.8 °F 16.1 °F 19.4 °F 80% 30.18 in 10.0 mi SW 8.1 mph - N/A   Clear
10:55 PM 24.8 °F 16.1 °F 19.4 °F 80% 30.17 in 10.0 mi SW 8.1 mph - N/A   Clear
11:15 PM 24.8 °F 19.1 °F 19.4 °F 80% 30.17 in 10.0 mi SSW 4.6 mph - N/A   Clear
11:35 PM 24.8 °F 20.5 °F 19.4 °F 80% 30.17 in 10.0 mi SSW 3.5 mph - N/A   Clear
11:55 PM 23.0 °F 17.0 °F 19.4 °F 86% 30.16 in 10.0 mi SSW 4.6 mph - N/A   Clear